Time;durP1;ratioP1;P1;durP2;ratioP2;P2;SDS_P1;SDS_P2;PMS_P1;PMS_P2;Temp;Humidity;BMP_temperature;BMP_pressure;BME280_temperature;BME280_humidity;BME280_pressure;Samples;Min_cycle;Max_cycle;Signal;HPM_P1;HPM_P2
2022/05/22 00:00:55;;;;;;;11.70;4.60;;;17.50;96.60;;;;;;5047335;28;20962;-38
2022/05/22 00:03:22;;;;;;;11.32;4.68;;;17.50;96.70;;;;;;5046441;28;20218;-38
2022/05/22 00:05:52;;;;;;;9.57;4.80;;;17.40;96.70;;;;;;5042727;28;20336;-38
2022/05/22 00:08:20;;;;;;;8.63;3.72;;;17.40;97.00;;;;;;5029807;28;20211;-38
2022/05/22 00:10:48;;;;;;;9.43;3.13;;;17.40;96.70;;;;;;5046831;28;20220;-38
2022/05/22 00:13:15;;;;;;;11.52;3.88;;;17.40;96.70;;;;;;5046529;28;20573;-38
2022/05/22 00:16:36;;;;;;;10.73;4.28;;;17.30;96.70;;;;;;5046088;28;20623;-38
2022/05/22 00:18:29;;;;;;;9.80;3.45;;;17.30;96.70;;;;;;5048236;28;20219;-38
2022/05/22 00:20:56;;;;;;;9.05;4.13;;;17.20;96.80;;;;;;5047592;28;20244;-37
2022/05/22 00:23:28;;;;;;;9.07;3.55;;;17.20;96.70;;;;;;5047340;28;20211;-37
2022/05/22 00:25:58;;;;;;;7.05;3.60;;;17.10;96.70;;;;;;5045605;28;20235;-37
2022/05/22 00:28:26;;;;;;;7.18;3.53;;;17.10;96.70;;;;;;5027533;28;20240;-37
2022/05/22 00:30:56;;;;;;;7.65;3.40;;;17.10;96.80;;;;;;5027318;28;20235;-37
2022/05/22 00:33:23;;;;;;;8.18;3.45;;;17.00;96.70;;;;;;5027904;28;20205;-35
2022/05/22 00:35:53;;;;;;;11.90;3.65;;;17.00;96.80;;;;;;5027965;28;20624;-35
2022/05/22 00:38:20;;;;;;;5.30;2.80;;;17.00;96.80;;;;;;5041900;28;20207;-34
2022/05/22 00:40:50;;;;;;;10.25;2.80;;;17.00;96.70;;;;;;5040972;28;20296;-34
2022/05/22 00:43:34;;;;;;;8.50;3.10;;;17.00;96.70;;;;;;5030754;28;20722;-34
2022/05/22 00:46:07;;;;;;;9.65;3.10;;;16.90;96.70;;;;;;5046824;28;20228;-34
2022/05/22 00:48:35;;;;;;;6.88;3.00;;;16.90;96.60;;;;;;5046110;28;20200;-34
2022/05/22 00:51:27;;;;;;;8.30;3.13;;;16.90;96.60;;;;;;5047221;28;20200;-34
2022/05/22 00:54:13;;;;;;;6.07;2.83;;;16.90;96.80;;;;;;5047351;28;20196;-34
2022/05/22 00:56:48;;;;;;;7.68;3.13;;;16.90;96.70;;;;;;5046203;28;20305;-34
2022/05/22 00:59:31;;;;;;;6.07;2.83;;;16.90;96.80;;;;;;5035297;28;20204;-34
2022/05/22 01:01:59;;;;;;;6.15;2.83;;;16.80;96.70;;;;;;5045973;28;20232;-33
2022/05/22 01:04:31;;;;;;;7.95;2.83;;;16.80;96.70;;;;;;5047044;28;20211;-36
2022/05/22 01:07:00;;;;;;;6.38;3.20;;;16.80;96.70;;;;;;5047065;28;20247;-36
2022/05/22 01:09:27;;;;;;;6.93;3.10;;;16.70;96.70;;;;;;5045609;28;20192;-37
2022/05/22 01:12:04;;;;;;;6.10;2.80;;;16.70;96.80;;;;;;5047485;28;20672;-34
2022/05/22 01:14:33;;;;;;;8.13;2.90;;;16.60;96.80;;;;;;5046085;28;20218;-34
2022/05/22 01:17:08;;;;;;;8.57;3.25;;;16.60;96.80;;;;;;5045984;28;20254;-34
2022/05/22 01:19:37;;;;;;;6.95;2.85;;;16.50;96.70;;;;;;5045720;28;20196;-35
2022/05/22 01:22:12;;;;;;;8.00;2.85;;;16.50;96.70;;;;;;5047421;28;20686;-34
2022/05/22 01:24:41;;;;;;;6.63;2.90;;;16.50;96.90;;;;;;5050401;28;20234;-34
2022/05/22 01:27:13;;;;;;;9.35;3.33;;;16.40;96.70;;;;;;5050403;28;20228;-34
2022/05/22 01:29:40;;;;;;;9.13;3.17;;;16.40;96.70;;;;;;5050339;28;20302;-34
2022/05/22 01:32:10;;;;;;;6.35;3.05;;;16.40;96.80;;;;;;5034650;28;20240;-36
2022/05/22 01:34:37;;;;;;;6.40;3.20;;;16.30;96.70;;;;;;5037333;28;20284;-36
2022/05/22 01:37:09;;;;;;;11.07;3.45;;;16.30;96.80;;;;;;5050333;28;20224;-36
2022/05/22 01:39:36;;;;;;;6.63;2.58;;;16.30;96.80;;;;;;5067114;28;20674;-36
2022/05/22 01:42:08;;;;;;;5.53;3.13;;;16.30;96.80;;;;;;5070382;28;20230;-37
2022/05/22 01:44:35;;;;;;;8.90;3.63;;;16.30;96.90;;;;;;5039945;28;20308;-37
2022/05/22 01:47:04;;;;;;;5.78;3.20;;;16.30;96.80;;;;;;5029907;28;20686;-37
2022/05/22 01:49:32;;;;;;;6.55;3.08;;;16.30;96.80;;;;;;5030902;28;20204;-37
2022/05/22 01:51:59;;;;;;;9.38;3.63;;;16.30;96.80;;;;;;5039770;28;20207;-37
2022/05/22 01:54:26;;;;;;;7.50;3.42;;;16.20;97.10;;;;;;5050157;28;20208;-37
2022/05/22 01:56:54;;;;;;;11.13;3.95;;;16.20;96.80;;;;;;5050095;28;20312;-36
2022/05/22 01:59:23;;;;;;;8.45;4.05;;;16.20;96.90;;;;;;5050074;28;20254;-37
2022/05/22 02:01:53;;;;;;;6.95;4.15;;;16.20;96.90;;;;;;5050042;28;20197;-36
2022/05/22 02:04:20;;;;;;;10.30;4.28;;;16.20;96.90;;;;;;5049295;28;20204;-37
2022/05/22 02:09:34;;;;;;;9.73;3.45;;;16.10;96.80;;;;;;5047831;28;20372;-37
2022/05/22 02:12:01;;;;;;;9.48;4.32;;;16.10;96.70;;;;;;5048415;28;20261;-37
2022/05/22 02:14:33;;;;;;;7.47;4.30;;;16.10;96.90;;;;;;5047192;28;20204;-37
2022/05/22 02:17:00;;;;;;;6.25;4.07;;;16.00;96.90;;;;;;5028243;28;20643;-37
2022/05/22 02:19:30;;;;;;;8.73;4.25;;;16.00;96.90;;;;;;5029696;28;20200;-37
2022/05/22 02:22:00;;;;;;;10.27;4.97;;;16.00;97.00;;;;;;5030397;28;20205;-37
2022/05/22 02:24:27;;;;;;;9.70;4.20;;;15.90;97.10;;;;;;5028447;28;20224;-37
2022/05/22 02:26:57;;;;;;;8.45;4.45;;;15.90;97.00;;;;;;5046452;28;20327;-37
2022/05/22 02:29:24;;;;;;;6.80;3.45;;;15.90;97.10;;;;;;5049483;28;20231;-36
2022/05/22 02:31:57;;;;;;;9.13;4.50;;;15.80;97.00;;;;;;5049125;28;20223;-37
2022/05/22 02:34:29;;;;;;;8.77;4.57;;;15.80;97.10;;;;;;5049318;28;20200;-37
2022/05/22 02:36:58;;;;;;;8.68;4.57;;;15.70;97.10;;;;;;5043873;28;20698;-36
2022/05/22 02:39:26;;;;;;;7.30;4.53;;;15.70;97.10;;;;;;5041316;28;20270;-37
2022/05/22 02:41:53;;;;;;;8.30;3.78;;;15.70;97.10;;;;;;5029943;28;20311;-37
2022/05/22 02:44:20;;;;;;;9.10;4.25;;;15.60;97.30;;;;;;5049140;28;20231;-36
2022/05/22 02:46:48;;;;;;;9.45;4.50;;;15.60;97.20;;;;;;5033534;28;20213;-37
2022/05/22 02:49:18;;;;;;;8.98;4.28;;;15.50;97.10;;;;;;5029150;28;20706;-36
2022/05/22 02:51:45;;;;;;;9.02;5.13;;;15.50;97.10;;;;;;5044084;28;20239;-37
2022/05/22 02:54:12;;;;;;;6.95;4.10;;;15.50;97.20;;;;;;5069076;28;20238;-36
2022/05/22 02:56:43;;;;;;;9.18;4.32;;;15.50;97.20;;;;;;5044111;28;20240;-37
2022/05/22 02:59:13;;;;;;;10.77;4.68;;;15.40;97.20;;;;;;5031996;28;20217;-36
2022/05/22 03:01:40;;;;;;;8.55;4.72;;;15.40;97.20;;;;;;5048419;28;20678;-37
2022/05/22 03:04:11;;;;;;;9.13;4.45;;;15.40;97.10;;;;;;5048917;28;20265;-37
2022/05/22 03:06:40;;;;;;;10.18;4.80;;;15.40;96.90;;;;;;5048790;28;20215;-37
2022/05/22 03:09:19;;;;;;;9.18;4.18;;;15.30;97.00;;;;;;5039225;28;20217;-36
2022/05/22 03:11:48;;;;;;;9.35;4.47;;;15.30;96.90;;;;;;5028974;28;20379;-33
2022/05/22 03:14:16;;;;;;;8.30;4.45;;;15.30;97.00;;;;;;5059958;28;20604;-34
2022/05/22 03:16:43;;;;;;;9.48;4.93;;;15.30;97.10;;;;;;5045654;28;20276;-34
2022/05/22 03:19:14;;;;;;;9.63;5.37;;;15.30;97.10;;;;;;5048330;28;20204;-34
2022/05/22 03:21:42;;;;;;;7.75;4.63;;;15.30;97.20;;;;;;5048581;28;20627;-34
2022/05/22 03:24:10;;;;;;;8.23;4.25;;;15.30;97.30;;;;;;5047570;28;20216;-33
2022/05/22 03:26:39;;;;;;;8.57;4.40;;;15.20;97.30;;;;;;5048222;28;20706;-34
2022/05/22 03:29:06;;;;;;;6.67;4.03;;;15.20;97.30;;;;;;5047890;28;20705;-34
2022/05/22 03:31:34;;;;;;;7.95;4.82;;;15.20;97.30;;;;;;5028597;28;20594;-34
2022/05/22 03:34:04;;;;;;;7.63;4.55;;;15.10;97.30;;;;;;5038261;28;20707;-34
2022/05/22 03:36:31;;;;;;;8.68;5.00;;;15.10;97.40;;;;;;5048470;28;20335;-34
2022/05/22 03:38:58;;;;;;;10.23;4.85;;;15.10;97.40;;;;;;5046530;28;20204;-33
2022/05/22 03:41:28;;;;;;;8.15;4.65;;;15.10;97.40;;;;;;5028018;28;20248;-35
2022/05/22 03:43:58;;;;;;;8.95;4.88;;;15.00;97.40;;;;;;5027818;28;20236;-34
2022/05/22 03:46:25;;;;;;;9.02;4.60;;;15.00;97.50;;;;;;5037996;28;20269;-34
2022/05/22 03:48:52;;;;;;;8.63;5.10;;;14.90;97.40;;;;;;5046934;28;20195;-34
2022/05/22 03:51:19;;;;;;;9.18;4.93;;;14.90;97.40;;;;;;5035412;28;20308;-38
2022/05/22 03:53:46;;;;;;;9.02;4.53;;;14.90;97.80;;;;;;5030896;28;20651;-34
2022/05/22 03:56:18;;;;;;;9.10;4.57;;;14.90;97.50;;;;;;5047603;28;20236;-34
2022/05/22 03:58:46;;;;;;;11.50;4.80;;;14.90;97.50;;;;;;5046168;28;20319;-34
2022/05/22 04:01:14;;;;;;;8.70;4.30;;;14.90;97.50;;;;;;5046133;28;20295;-34
2022/05/22 04:03:41;;;;;;;9.38;5.10;;;14.80;97.80;;;;;;5047137;28;20756;-34
2022/05/22 04:06:11;;;;;;;10.50;4.70;;;14.80;97.60;;;;;;5047792;28;20262;-34
2022/05/22 04:08:41;;;;;;;7.73;4.80;;;14.80;97.60;;;;;;5036394;28;20220;-34
2022/05/22 04:11:15;;;;;;;7.68;4.68;;;14.80;97.60;;;;;;5047701;28;20697;-33
2022/05/22 04:13:45;;;;;;;7.70;4.35;;;14.80;97.70;;;;;;5046418;28;20232;-34
2022/05/22 04:16:13;;;;;;;9.02;4.45;;;14.80;97.70;;;;;;5047109;28;20700;-33
2022/05/22 04:18:43;;;;;;;8.55;4.07;;;14.80;97.70;;;;;;5047783;28;20254;-34
2022/05/22 04:21:11;;;;;;;10.40;4.60;;;14.80;97.70;;;;;;5046814;28;20829;-36
2022/05/22 04:26:30;;;;;;;9.20;4.18;;;14.90;97.80;;;;;;5045538;28;20767;-37
2022/05/22 04:29:00;;;;;;;7.20;3.90;;;14.90;97.90;;;;;;5046012;28;20249;-36
2022/05/22 04:31:27;;;;;;;7.13;3.67;;;14.90;97.80;;;;;;5046962;28;20196;-37
2022/05/22 04:33:55;;;;;;;5.40;3.67;;;14.90;97.80;;;;;;5047613;28;20213;-37
2022/05/22 04:36:22;;;;;;;6.95;3.97;;;15.00;97.90;;;;;;5047584;28;20204;-37
2022/05/22 04:38:49;;;;;;;6.15;3.70;;;15.00;97.90;;;;;;5056912;28;20610;-37
2022/05/22 04:41:21;;;;;;;7.43;3.55;;;15.00;97.90;;;;;;5059635;28;20236;-36
2022/05/22 04:43:48;;;;;;;4.80;3.28;;;15.00;97.90;;;;;;5027486;28;20680;-37
2022/05/22 04:46:16;;;;;;;5.22;3.50;;;15.10;97.90;;;;;;5048257;28;20663;-36
2022/05/22 04:48:53;;;;;;;5.55;3.70;;;15.10;98.00;;;;;;5067448;28;20203;-37
2022/05/22 04:51:22;;;;;;;6.55;3.53;;;15.10;98.00;;;;;;5067632;28;20751;-36
2022/05/22 04:53:52;;;;;;;9.13;3.92;;;15.20;98.10;;;;;;5067307;28;20214;-36
2022/05/22 04:56:22;;;;;;;5.82;3.33;;;15.20;98.10;;;;;;5031353;28;20570;-34
2022/05/22 04:58:54;;;;;;;5.03;3.58;;;15.20;98.20;;;;;;5037692;28;20450;-34
2022/05/22 05:01:23;;;;;;;4.75;3.30;;;15.20;98.20;;;;;;5050828;28;20208;-34
2022/05/22 05:03:53;;;;;;;4.97;3.50;;;15.30;98.20;;;;;;5049940;28;20192;-34
2022/05/22 05:06:21;;;;;;;5.13;3.35;;;15.30;98.30;;;;;;5051102;28;20213;-34
2022/05/22 05:08:48;;;;;;;5.95;3.60;;;15.30;98.30;;;;;;5050842;28;20224;-34
2022/05/22 05:11:18;;;;;;;6.80;3.70;;;15.40;98.30;;;;;;5050227;28;20306;-34
2022/05/22 05:13:45;;;;;;;5.20;3.50;;;15.40;98.30;;;;;;5049462;28;20203;-34
2022/05/22 05:16:14;;;;;;;5.65;3.88;;;15.40;98.30;;;;;;5039559;28;20228;-34
2022/05/22 05:18:54;;;;;;;8.05;3.97;;;15.50;98.40;;;;;;5029733;28;20209;-34
2022/05/22 05:21:21;;;;;;;5.32;3.92;;;15.50;98.50;;;;;;5031344;28;20663;-33
2022/05/22 05:23:48;;;;;;;4.93;3.50;;;15.50;98.40;;;;;;5030951;28;20209;-34
2022/05/22 05:26:16;;;;;;;6.50;3.88;;;15.60;98.50;;;;;;5030729;28;20712;-34
2022/05/22 05:28:45;;;;;;;8.07;4.05;;;15.60;98.50;;;;;;5030992;28;20221;-35
2022/05/22 05:31:12;;;;;;;5.95;3.58;;;15.70;98.60;;;;;;5046683;28;20210;-35
2022/05/22 05:33:44;;;;;;;7.90;4.00;;;15.70;98.60;;;;;;5035312;28;20710;-33
2022/05/22 05:36:16;;;;;;;9.32;4.82;;;15.80;98.60;;;;;;5030273;28;20217;-33
2022/05/22 05:38:43;;;;;;;9.02;4.25;;;15.80;98.70;;;;;;5053771;28;20566;-34
2022/05/22 05:41:28;;;;;;;5.55;3.97;;;15.90;98.70;;;;;;5070692;28;20200;-36
2022/05/22 05:43:58;;;;;;;8.40;4.20;;;15.90;98.70;;;;;;5070280;28;20566;-37
2022/05/22 05:46:25;;;;;;;5.72;4.00;;;15.90;98.70;;;;;;5047430;28;20697;-37
2022/05/22 05:48:54;;;;;;;6.68;3.88;;;16.00;98.80;;;;;;5030599;28;20205;-34
2022/05/22 05:51:22;;;;;;;5.47;3.70;;;16.00;98.80;;;;;;5030227;28;20204;-34
2022/05/22 05:53:49;;;;;;;6.82;3.85;;;16.10;98.80;;;;;;5030616;28;20671;-34
2022/05/22 05:56:17;;;;;;;7.75;3.65;;;16.10;98.90;;;;;;5030120;28;20241;-34
2022/05/22 05:58:52;;;;;;;5.13;3.88;;;16.10;98.90;;;;;;5047746;28;20227;-34
2022/05/22 06:01:24;;;;;;;6.68;3.97;;;16.20;99.00;;;;;;5049679;28;20204;-34
2022/05/22 06:03:55;;;;;;;5.45;4.10;;;16.20;98.90;;;;;;5049387;28;20208;-34
2022/05/22 06:06:22;;;;;;;5.63;3.95;;;16.20;98.90;;;;;;5048946;28;20654;-34
2022/05/22 06:08:52;;;;;;;5.68;3.65;;;16.30;99.00;;;;;;5049835;28;20683;-34
2022/05/22 06:11:22;;;;;;;8.55;4.10;;;16.30;99.00;;;;;;5047767;28;20204;-34
2022/05/22 06:13:54;;;;;;;4.28;3.20;;;16.30;99.00;;;;;;5049994;28;20253;-34
2022/05/22 06:16:26;;;;;;;7.78;4.50;;;16.40;99.00;;;;;;5049207;28;20640;-34
2022/05/22 06:18:53;;;;;;;7.85;4.63;;;16.40;99.10;;;;;;5049806;28;20215;-34
2022/05/22 06:21:22;;;;;;;7.18;4.47;;;16.50;99.10;;;;;;5032109;28;20284;-34
2022/05/22 06:23:50;;;;;;;7.50;4.82;;;16.60;99.20;;;;;;5036378;28;20216;-35
2022/05/22 06:26:17;;;;;;;8.50;4.80;;;16.60;99.20;;;;;;5049540;28;20281;-35
2022/05/22 06:28:46;;;;;;;11.85;4.93;;;16.70;99.20;;;;;;5049242;28;20236;-35
2022/05/22 06:31:14;;;;;;;8.88;5.22;;;16.80;99.30;;;;;;5049027;28;20204;-35
2022/05/22 06:33:44;;;;;;;7.03;4.70;;;16.80;99.30;;;;;;5048183;28;20241;-34
2022/05/22 06:36:14;;;;;;;8.70;5.15;;;16.90;99.30;;;;;;5048638;28;20266;-34
2022/05/22 06:41:31;;;;;;;7.68;4.55;;;17.00;99.30;;;;;;5041240;28;20240;-34
2022/05/22 06:44:01;;;;;;;9.80;4.88;;;17.10;99.40;;;;;;5029344;28;20377;-34
2022/05/22 06:46:33;;;;;;;11.05;5.30;;;17.10;99.40;;;;;;5028928;28;20213;-34
2022/05/22 06:49:02;;;;;;;7.55;4.50;;;17.20;99.40;;;;;;5027476;28;20642;-34
2022/05/22 06:51:33;;;;;;;7.10;4.70;;;17.20;99.40;;;;;;5029354;28;20243;-34
2022/05/22 06:54:04;;;;;;;12.35;5.22;;;17.30;99.50;;;;;;5030133;28;20197;-34
2022/05/22 06:56:33;;;;;;;9.52;4.82;;;17.40;99.50;;;;;;5029224;28;20243;-34
2022/05/22 06:59:00;;;;;;;10.90;5.47;;;17.40;99.50;;;;;;5029248;28;20700;-34
2022/05/22 07:01:30;;;;;;;8.45;4.40;;;17.50;99.50;;;;;;5028556;28;20208;-35
2022/05/22 07:03:59;;;;;;;8.18;4.60;;;17.50;99.50;;;;;;5029075;28;20255;-34
2022/05/22 07:06:29;;;;;;;8.90;5.03;;;17.60;99.60;;;;;;5028930;28;20211;-34
2022/05/22 07:08:56;;;;;;;13.63;6.22;;;17.60;99.60;;;;;;5040286;28;20236;-34
2022/05/22 07:11:40;;;;;;;10.95;5.60;;;17.70;99.60;;;;;;5038813;28;20201;-34
2022/05/22 07:14:13;;;;;;;8.13;5.03;;;17.80;99.70;;;;;;5030489;28;20682;-34
2022/05/22 07:16:41;;;;;;;12.02;6.60;;;17.80;99.60;;;;;;5048358;28;20207;-34
2022/05/22 07:19:13;;;;;;;9.02;5.80;;;17.90;99.60;;;;;;5048513;28;20215;-34
2022/05/22 07:21:40;;;;;;;10.18;5.70;;;17.90;99.60;;;;;;5048489;28;20224;-35
2022/05/22 07:24:07;;;;;;;9.00;5.50;;;18.00;99.70;;;;;;5048372;28;20558;-34
2022/05/22 07:26:36;;;;;;;15.32;6.70;;;18.10;99.70;;;;;;5047930;28;20259;-35
2022/05/22 07:29:03;;;;;;;12.07;7.13;;;18.10;99.50;;;;;;5032392;28;20236;-35
2022/05/22 07:31:32;;;;;;;13.55;6.88;;;18.20;99.60;;;;;;5033468;28;20204;-35
2022/05/22 07:34:02;;;;;;;9.85;6.03;;;18.20;99.60;;;;;;5048437;28;20283;-35
2022/05/22 07:36:29;;;;;;;12.50;6.43;;;18.30;99.60;;;;;;5051052;28;20215;-34
2022/05/22 07:38:57;;;;;;;11.68;6.10;;;18.30;99.60;;;;;;5065316;28;20203;-35
2022/05/22 07:41:24;;;;;;;13.85;6.28;;;18.30;99.60;;;;;;5068004;28;20257;-34
2022/05/22 07:43:51;;;;;;;12.68;6.20;;;18.40;99.60;;;;;;5066305;28;20725;-34
2022/05/22 07:46:19;;;;;;;11.63;6.45;;;18.40;99.60;;;;;;5030612;28;20219;-34
2022/05/22 07:48:46;;;;;;;12.43;6.43;;;18.40;99.50;;;;;;5038711;28;20608;-35
2022/05/22 07:51:15;;;;;;;14.20;6.97;;;18.50;99.40;;;;;;5047787;28;20207;-35
2022/05/22 07:53:43;;;;;;;12.55;6.15;;;18.60;99.50;;;;;;5046856;28;20607;-34
2022/05/22 07:56:13;;;;;;;13.80;6.60;;;18.60;99.50;;;;;;5047688;28;20236;-34
2022/05/22 07:58:47;;;;;;;10.95;6.75;;;18.60;99.60;;;;;;5045802;28;20670;-34
2022/05/22 08:01:17;;;;;;;11.23;6.40;;;18.70;99.60;;;;;;5046557;28;20777;-34
2022/05/22 08:03:45;;;;;;;9.50;6.05;;;18.70;99.60;;;;;;5027829;28;20219;-34
2022/05/22 08:06:12;;;;;;;9.65;5.63;;;18.80;99.70;;;;;;5034675;28;20240;-34
2022/05/22 08:08:44;;;;;;;12.95;6.47;;;18.80;99.70;;;;;;5036774;28;20648;-33
2022/05/22 08:11:11;;;;;;;12.80;6.63;;;18.90;99.80;;;;;;5048024;28;20274;-34
2022/05/22 08:13:41;;;;;;;8.52;6.22;;;18.90;99.70;;;;;;5047610;28;20226;-34
2022/05/22 08:16:13;;;;;;;7.47;5.15;;;19.00;99.80;;;;;;5047257;28;20200;-34
2022/05/22 08:18:43;;;;;;;10.38;5.55;;;19.00;99.80;;;;;;5043627;28;20251;-34
2022/05/22 08:21:30;;;;;;;12.35;5.95;;;19.10;99.80;;;;;;5028007;28;20281;-34
2022/05/22 08:24:00;;;;;;;10.50;5.47;;;19.20;99.60;;;;;;5045368;28;20208;-34
2022/05/22 08:26:29;;;;;;;11.13;5.32;;;19.20;99.70;;;;;;5047417;28;20208;-34
2022/05/22 08:28:57;;;;;;;10.07;5.45;;;19.20;99.80;;;;;;5045480;28;20576;-35
2022/05/22 08:31:31;;;;;;;9.60;4.00;;;19.30;99.70;;;;;;5047114;28;20224;-35
2022/05/22 08:33:59;;;;;;;10.07;4.30;;;19.30;99.80;;;;;;5050359;28;20215;-35
2022/05/22 08:36:26;;;;;;;11.85;4.22;;;19.40;99.80;;;;;;5040977;28;20685;-35
2022/05/22 08:38:55;;;;;;;9.73;5.03;;;19.40;99.80;;;;;;5053640;28;20290;-35
2022/05/22 08:41:33;;;;;;;10.35;5.45;;;19.50;99.80;;;;;;5031374;28;20208;-35
2022/05/22 08:44:06;;;;;;;9.40;4.93;;;19.50;99.80;;;;;;5031231;28;20208;-35
2022/05/22 08:46:47;;;;;;;10.38;5.00;;;19.50;99.80;;;;;;5029439;28;20205;-35
2022/05/22 08:49:23;;;;;;;8.27;4.32;;;19.60;99.90;;;;;;5036526;28;20605;-35
2022/05/22 08:51:57;;;;;;;10.80;5.55;;;19.60;99.90;;;;;;5033017;28;20645;-35
2022/05/22 08:54:40;;;;;;;10.20;5.10;;;19.70;99.90;;;;;;5032231;28;20227;-35
2022/05/22 09:00:32;;;;;;;10.48;4.80;;;19.80;99.70;;;;;;5040749;28;20255;-35
2022/05/22 09:03:30;;;;;;;6.60;3.95;;;19.80;99.70;;;;;;5029496;28;20635;-35
2022/05/22 09:06:05;;;;;;;8.20;3.60;;;19.80;99.90;;;;;;5031398;28;20197;-35
2022/05/22 09:08:47;;;;;;;6.55;3.17;;;19.90;99.90;;;;;;5035376;28;20216;-35
2022/05/22 09:11:40;;;;;;;9.68;3.78;;;19.90;99.80;;;;;;5033758;28;20228;-35
2022/05/22 09:14:29;;;;;;;6.38;3.20;;;20.00;99.90;;;;;;5039450;28;20750;-34
2022/05/22 09:17:10;;;;;;;5.82;2.90;;;20.00;99.70;;;;;;5050124;28;20214;-35
2022/05/22 09:19:44;;;;;;;6.55;2.75;;;20.10;99.80;;;;;;5050908;28;20208;-35
2022/05/22 09:22:39;;;;;;;4.28;3.00;;;20.10;99.80;;;;;;5049075;28;20256;-35
2022/05/22 09:25:33;;;;;;;6.95;3.03;;;20.10;99.70;;;;;;5050452;28;20743;-34
2022/05/22 09:28:38;;;;;;;8.10;3.78;;;20.20;99.70;;;;;;5049282;28;20319;-35
2022/05/22 09:31:20;;;;;;;5.53;2.83;;;20.20;99.70;;;;;;5039378;28;20205;-35
2022/05/22 09:34:06;;;;;;;7.00;2.92;;;20.20;99.60;;;;;;5030624;28;20212;-34
2022/05/22 09:36:55;;;;;;;9.20;3.40;;;20.20;99.70;;;;;;5030739;28;20193;-35
2022/05/22 09:40:01;;;;;;;7.78;3.30;;;20.30;99.70;;;;;;5067203;28;20326;-35
2022/05/22 09:42:40;;;;;;;4.45;3.03;;;20.30;99.70;;;;;;5068364;28;20290;-35
2022/05/22 09:45:23;;;;;;;8.45;3.92;;;20.30;99.70;;;;;;5036443;28;20236;-35
2022/05/22 09:48:13;;;;;;;6.70;2.92;;;20.40;99.60;;;;;;5037785;28;20224;-34
2022/05/22 09:50:59;;;;;;;7.15;3.28;;;20.40;99.50;;;;;;5051133;28;20563;-35
2022/05/22 09:53:34;;;;;;;6.93;3.38;;;20.40;99.40;;;;;;5050200;28;20208;-35
2022/05/22 09:56:22;;;;;;;6.70;3.60;;;20.40;99.30;;;;;;5049808;28;20627;-35
2022/05/22 09:58:56;;;;;;;8.43;3.20;;;20.40;99.40;;;;;;5049638;28;20702;-35
2022/05/22 10:01:31;;;;;;;6.75;2.80;;;20.40;99.30;;;;;;5039334;28;20401;-38
2022/05/22 10:04:10;;;;;;;4.57;2.78;;;20.40;99.30;;;;;;5046986;28;20212;-38
2022/05/22 10:06:43;;;;;;;4.85;2.75;;;20.40;99.40;;;;;;5048473;28;20204;-38
2022/05/22 10:09:11;;;;;;;4.95;2.75;;;20.50;99.50;;;;;;5049480;28;20226;-38
2022/05/22 10:12:06;;;;;;;5.53;2.65;;;20.50;99.50;;;;;;5049383;28;20553;-38
2022/05/22 10:15:02;;;;;;;7.13;3.28;;;20.60;99.40;;;;;;5049603;28;20225;-37
2022/05/22 10:17:48;;;;;;;4.85;2.38;;;20.60;99.80;;;;;;5048131;28;20227;-38
2022/05/22 10:20:21;;;;;;;6.78;3.13;;;20.70;99.60;;;;;;5049767;28;20295;-35
2022/05/22 10:23:14;;;;;;;5.95;2.90;;;20.80;99.50;;;;;;5033003;28;20646;-35
2022/05/22 10:25:50;;;;;;;8.88;3.60;;;20.80;99.40;;;;;;5029208;28;20196;-35
2022/05/22 10:28:23;;;;;;;5.15;2.55;;;20.80;99.30;;;;;;5028982;28;20228;-35
2022/05/22 10:30:53;;;;;;;5.10;2.97;;;20.80;99.30;;;;;;5029548;28;20212;-35
2022/05/22 10:33:29;;;;;;;4.80;2.60;;;20.80;99.30;;;;;;5029459;28;20197;-35
2022/05/22 10:36:17;;;;;;;8.85;3.17;;;20.90;99.30;;;;;;5030168;28;20212;-34
2022/05/22 10:39:07;;;;;;;7.53;2.80;;;20.90;99.30;;;;;;5034303;28;20231;-34
2022/05/22 10:44:53;;;;;;;6.30;3.20;;;21.00;99.40;;;;;;5029239;28;20201;-34
2022/05/22 10:47:30;;;;;;;5.75;2.80;;;21.10;99.40;;;;;;5028604;28;20237;-35
2022/05/22 10:50:13;;;;;;;7.30;3.00;;;21.10;99.50;;;;;;5040485;28;20286;-34
2022/05/22 10:52:42;;;;;;;5.72;2.40;;;21.20;99.30;;;;;;5036363;28;20209;-34
2022/05/22 10:55:33;;;;;;;4.97;3.15;;;21.20;99.40;;;;;;5032951;28;20608;-34
2022/05/22 10:58:08;;;;;;;8.27;3.45;;;21.30;99.30;;;;;;5048419;28;20295;-34
2022/05/22 11:00:35;;;;;;;8.43;3.53;;;21.30;99.30;;;;;;5049094;28;20303;-35
2022/05/22 11:03:13;;;;;;;4.90;3.00;;;21.30;99.20;;;;;;5048116;28;20207;-35
2022/05/22 11:05:54;;;;;;;5.38;2.47;;;21.40;99.30;;;;;;5048924;28;20199;-34
2022/05/22 11:08:28;;;;;;;7.85;3.33;;;21.40;99.30;;;;;;5046404;28;20310;-34
2022/05/22 11:11:00;;;;;;;4.40;2.72;;;21.50;99.40;;;;;;5040100;28;20195;-34
2022/05/22 11:13:28;;;;;;;7.80;3.22;;;21.50;99.30;;;;;;5034110;28;20211;-34
2022/05/22 11:15:55;;;;;;;5.28;3.17;;;21.60;99.40;;;;;;5027988;28;20189;-34
2022/05/22 11:18:27;;;;;;;6.95;3.00;;;21.60;99.30;;;;;;5028537;28;20248;-34
2022/05/22 11:21:11;;;;;;;7.20;3.17;;;21.70;99.30;;;;;;5027174;28;20287;-34
2022/05/22 11:24:00;;;;;;;6.45;2.65;;;21.70;99.20;;;;;;5028503;28;20299;-34
2022/05/22 11:26:41;;;;;;;4.88;2.50;;;21.70;99.40;;;;;;5028907;28;20221;-34
2022/05/22 11:29:53;;;;;;;7.82;2.80;;;21.80;99.50;;;;;;5030459;28;20252;-34
2022/05/22 11:32:50;;;;;;;8.90;2.72;;;21.80;99.00;;;;;;5047752;28;20682;-34
2022/05/22 11:35:26;;;;;;;6.38;2.88;;;21.90;99.40;;;;;;5048359;28;20214;-34
2022/05/22 11:38:28;;;;;;;5.43;2.80;;;21.90;99.20;;;;;;5050885;28;20290;-34
2022/05/22 11:41:18;;;;;;;7.35;3.15;;;22.00;99.40;;;;;;5067394;28;20202;-34
2022/05/22 11:43:56;;;;;;;5.55;2.40;;;22.00;99.40;;;;;;5040733;28;20228;-35
2022/05/22 11:46:41;;;;;;;7.80;2.53;;;22.10;99.50;;;;;;5031167;28;20705;-35
2022/05/22 11:49:22;;;;;;;7.30;2.30;;;22.20;99.00;;;;;;5047925;28;20216;-35
2022/05/22 11:52:53;;;;;;;6.88;3.00;;;22.20;99.20;;;;;;5046318;28;20207;-34
2022/05/22 11:55:20;;;;;;;7.38;2.88;;;22.30;99.10;;;;;;5047635;28;21357;-34
2022/05/22 11:58:05;;;;;;;5.78;2.83;;;22.30;99.10;;;;;;5047016;28;20731;-35
2022/05/22 12:00:53;;;;;;;5.40;2.40;;;22.30;98.90;;;;;;5047343;28;20686;-35
2022/05/22 12:03:46;;;;;;;5.50;2.28;;;22.30;99.10;;;;;;5045419;28;20616;-35
2022/05/22 12:06:25;;;;;;;6.50;2.38;;;22.40;99.20;;;;;;5047965;28;20196;-36
2022/05/22 12:09:07;;;;;;;5.60;2.30;;;22.40;99.30;;;;;;5046928;28;20294;-35
2022/05/22 12:11:54;;;;;;;5.60;2.67;;;22.50;99.30;;;;;;5048000;28;20240;-34
2022/05/22 12:14:28;;;;;;;4.75;2.22;;;22.60;99.30;;;;;;5047024;28;20557;-34
2022/05/22 12:17:36;;;;;;;3.75;2.03;;;22.60;99.20;;;;;;5046272;28;20199;-34
2022/05/22 12:20:19;;;;;;;4.63;2.10;;;22.70;99.40;;;;;;5064909;28;20249;-34
2022/05/22 12:23:43;;;;;;;6.10;2.90;;;22.70;99.40;;;;;;5048404;28;20231;-34
2022/05/22 12:26:13;;;;;;;5.25;2.50;;;22.80;99.10;;;;;;5064455;28;20229;-34
2022/05/22 12:28:56;;;;;;;4.78;2.42;;;22.80;99.10;;;;;;5064118;28;20429;-34
2022/05/22 12:31:43;;;;;;;4.50;2.28;;;22.90;99.00;;;;;;5053785;28;20227;-34
2022/05/22 12:34:18;;;;;;;4.53;2.53;;;22.90;99.20;;;;;;5046753;28;20261;-34
2022/05/22 12:36:50;;;;;;;5.13;2.28;;;22.90;99.00;;;;;;5045651;28;20259;-36
2022/05/22 12:39:18;;;;;;;3.53;2.08;;;22.90;98.70;;;;;;5048998;28;20295;-36
2022/05/22 12:41:51;;;;;;;5.95;2.20;;;22.90;98.80;;;;;;5047217;28;20212;-37
2022/05/22 12:44:20;;;;;;;4.68;2.28;;;23.00;98.90;;;;;;5046841;28;20762;-36
2022/05/22 12:46:50;;;;;;;4.80;2.10;;;23.00;98.70;;;;;;5047142;28;20688;-37
2022/05/22 12:49:23;;;;;;;4.07;2.10;;;23.00;98.90;;;;;;5046910;28;20278;-36
2022/05/22 12:52:06;;;;;;;3.28;1.60;;;23.00;98.90;;;;;;5046328;28;20289;-36
2022/05/22 12:54:36;;;;;;;3.85;1.80;;;23.10;98.90;;;;;;5040605;28;20228;-37
2022/05/22 12:57:10;;;;;;;4.13;1.90;;;23.10;98.90;;;;;;5027002;28;20243;-36
2022/05/22 12:59:37;;;;;;;3.65;1.95;;;23.20;98.90;;;;;;5036457;28;20604;-37
2022/05/22 13:02:25;;;;;;;3.20;2.03;;;23.20;99.00;;;;;;5046624;28;20301;-37
2022/05/22 13:05:01;;;;;;;5.13;1.80;;;23.30;99.00;;;;;;5047179;28;20296;-37
2022/05/22 13:07:35;;;;;;;2.67;1.42;;;23.30;99.00;;;;;;5046348;28;20209;-37
2022/05/22 13:10:29;;;;;;;4.28;2.05;;;23.40;99.10;;;;;;5045497;28;20227;-38
2022/05/22 13:13:01;;;;;;;3.45;2.10;;;23.50;98.80;;;;;;5029083;28;20270;-38
2022/05/22 13:15:31;;;;;;;5.28;2.30;;;23.50;98.80;;;;;;5027159;28;20832;-38
2022/05/22 13:18:13;;;;;;;5.47;2.25;;;23.50;98.50;;;;;;5034132;28;20227;-38
2022/05/22 13:20:56;;;;;;;5.10;1.83;;;23.50;98.30;;;;;;5049735;28;20266;-38
2022/05/22 13:23:28;;;;;;;3.72;1.63;;;23.50;98.10;;;;;;5050335;28;20772;-37
2022/05/22 13:26:03;;;;;;;4.68;1.75;;;23.50;98.60;;;;;;5036172;28;20296;-37
2022/05/22 13:28:42;;;;;;;3.17;1.75;;;23.60;98.80;;;;;;5035729;28;20874;-38
2022/05/22 13:31:17;;;;;;;4.40;2.00;;;23.60;98.80;;;;;;5049819;28;20196;-38
2022/05/22 13:34:06;;;;;;;3.70;1.88;;;23.70;98.80;;;;;;5050363;28;20529;-38